createdAt,value
2023-08-11T14:07:40.214Z,26.05
2023-08-11T14:20:09.916Z,26.19
2023-08-11T14:22:37.022Z,26.28
2023-08-11T14:25:04.477Z,26.33
2023-08-11T14:37:35.293Z,26.22
2023-08-11T14:43:23.220Z,25.85
2023-08-11T14:45:50.409Z,26.12
2023-08-11T14:48:17.599Z,25.89
2023-08-11T14:50:44.654Z,25.86
2023-08-11T14:53:11.760Z,25.93
2023-08-11T14:55:39.419Z,25.89
2023-08-11T14:58:06.426Z,25.84
2023-08-11T15:00:34.624Z,25.73
2023-08-11T15:03:01.799Z,25.62
2023-08-11T15:05:28.999Z,25.40
2023-08-11T15:07:56.242Z,25.48
2023-08-11T15:10:23.527Z,25.30
2023-08-11T15:12:50.641Z,25.56
2023-08-11T15:15:17.726Z,25.65
2023-08-11T15:17:44.823Z,25.77
2023-08-11T15:20:12.321Z,25.89
2023-08-11T15:22:39.442Z,25.75
2023-08-11T15:25:07.591Z,25.95
2023-08-11T15:27:36.544Z,26.03
2023-08-11T15:30:05.403Z,26.23
2023-08-11T15:32:32.934Z,26.16
2023-08-11T15:34:59.984Z,26.40
2023-08-11T15:37:27.022Z,26.26
2023-08-11T15:39:53.990Z,26.12
2023-08-11T15:42:21.028Z,26.02
2023-08-11T15:44:49.130Z,25.89
2023-08-11T15:47:16.200Z,25.91
2023-08-11T15:49:44.392Z,25.96
2023-08-11T15:52:11.741Z,25.56
2023-08-11T15:54:39.040Z,25.91
2023-08-11T15:57:06.139Z,25.82
2023-08-11T15:59:33.569Z,25.89
2023-08-11T16:02:09.223Z,25.73
2023-08-11T16:04:38.119Z,25.86
2023-08-11T16:07:05.787Z,25.88
2023-08-11T16:09:32.929Z,25.80
2023-08-11T16:11:59.950Z,25.70
2023-08-11T16:14:29.174Z,25.87
2023-08-11T16:16:56.475Z,26.04
2023-08-11T16:19:25.131Z,25.92
2023-08-11T16:21:52.722Z,25.94
2023-08-11T16:24:20.663Z,25.72
2023-08-11T16:26:48.732Z,25.88
2023-08-11T16:29:16.948Z,25.91
2023-08-11T16:31:44.261Z,25.82
2023-08-11T16:34:12.099Z,25.86
2023-08-11T16:36:39.057Z,25.77
2023-08-11T16:39:06.487Z,25.86
2023-08-11T16:41:33.951Z,25.73
2023-08-11T16:44:01.274Z,25.67
2023-08-11T16:46:28.528Z,25.59
2023-08-11T16:48:56.154Z,25.56
2023-08-11T16:51:23.532Z,25.49
2023-08-11T16:53:50.667Z,25.42
2023-08-11T16:56:17.818Z,25.36
2023-08-11T16:58:44.889Z,25.17
2023-08-11T17:01:12.035Z,25.22
2023-08-11T17:03:39.372Z,25.22
2023-08-11T17:06:06.416Z,25.39
2023-08-11T17:08:34.494Z,25.41
2023-08-11T17:11:02.995Z,25.56
2023-08-11T17:13:31.252Z,25.40
2023-08-11T17:15:58.388Z,25.17
2023-08-11T17:18:25.437Z,25.19
2023-08-11T17:20:52.564Z,25.14
2023-08-11T17:23:19.823Z,25.18
2023-08-11T17:25:47.747Z,25.21
2023-08-11T17:28:15.034Z,24.96
2023-08-11T17:30:42.396Z,25.03
2023-08-11T17:33:09.646Z,24.97
2023-08-11T17:37:35.683Z,25.12
2023-08-11T17:40:02.826Z,25.01
2023-08-11T17:42:30.197Z,24.82
2023-08-11T17:44:57.292Z,24.65
2023-08-11T17:47:24.367Z,24.57
2023-08-11T17:49:52.900Z,24.55
2023-08-11T17:52:19.984Z,24.40
2023-08-11T17:54:46.938Z,24.31
2023-08-11T17:57:14.039Z,24.24
2023-08-11T17:59:41.119Z,24.21
2023-08-11T18:02:08.481Z,24.23
2023-08-11T18:04:36.162Z,23.95
2023-08-11T18:07:03.539Z,23.79
2023-08-11T18:09:30.556Z,23.70
2023-08-11T18:11:57.779Z,23.73
2023-08-11T18:14:24.823Z,23.87
2023-08-11T18:16:51.911Z,23.83
2023-08-11T18:19:19.017Z,23.98
2023-08-11T18:21:46.055Z,24.13
2023-08-11T18:24:13.009Z,24.18
2023-08-11T18:26:40.151Z,24.16
2023-08-11T18:29:08.879Z,24.13
2023-08-11T18:31:36.015Z,24.00
2023-08-11T18:34:03.239Z,23.94
2023-08-11T18:36:30.279Z,24.11
2023-08-11T18:38:57.459Z,24.11
2023-08-11T18:41:24.668Z,24.11
2023-08-11T18:43:51.920Z,24.20
2023-08-11T18:46:18.940Z,23.78
2023-08-11T18:48:49.617Z,23.61
2023-08-11T18:51:17.188Z,23.64
2023-08-11T18:53:44.246Z,23.52
2023-08-11T18:56:12.823Z,23.84
2023-08-11T18:58:40.472Z,23.98
2023-08-11T19:01:07.780Z,24.09
2023-08-11T19:03:36.442Z,24.12
2023-08-11T19:06:04.619Z,24.06
2023-08-11T19:08:31.822Z,24.27
2023-08-11T19:10:59.375Z,24.09
2023-08-11T19:13:26.452Z,23.89
2023-08-11T19:15:53.633Z,23.61
2023-08-11T19:18:21.300Z,23.66
2023-08-11T19:20:48.459Z,23.86
2023-08-11T19:23:16.716Z,23.81
2023-08-11T19:25:49.110Z,23.89
2023-08-11T19:28:16.217Z,23.98
2023-08-11T19:30:43.430Z,23.91
2023-08-11T19:33:10.606Z,23.92
2023-08-11T19:35:37.834Z,23.49
2023-08-11T19:38:05.468Z,23.01
2023-08-11T19:40:32.654Z,23.58
2023-08-11T19:43:00.368Z,23.47
2023-08-11T19:45:27.512Z,23.08
2023-08-11T19:47:54.651Z,23.32
2023-08-11T19:50:23.391Z,23.38
2023-08-11T19:52:53.138Z,23.43
2023-08-11T19:55:20.238Z,23.57
2023-08-11T19:57:47.329Z,23.20
2023-08-11T20:00:15.077Z,23.39
2023-08-11T20:02:42.400Z,23.50
2023-08-11T20:05:09.669Z,23.56
2023-08-11T20:07:36.808Z,23.34
2023-08-11T20:10:04.629Z,23.35
2023-08-11T20:12:31.771Z,23.53
2023-08-11T20:14:58.935Z,23.40
2023-08-11T20:17:26.827Z,23.43
2023-08-11T20:19:53.898Z,23.25
2023-08-11T20:22:21.299Z,23.38
2023-08-11T20:24:49.815Z,23.34
2023-08-11T20:27:17.335Z,23.32
2023-08-11T20:29:44.538Z,23.16
2023-08-11T20:32:11.626Z,22.95
2023-08-11T20:34:38.738Z,23.07
2023-08-11T20:37:06.012Z,23.15
2023-08-11T20:39:32.979Z,22.97
2023-08-11T20:42:00.106Z,22.96
2023-08-11T20:44:27.140Z,23.06
2023-08-11T20:46:55.745Z,22.86
2023-08-11T20:49:22.975Z,22.47
2023-08-11T20:51:50.154Z,22.34
2023-08-11T20:54:17.387Z,22.06
2023-08-11T20:56:44.619Z,22.07
2023-08-11T20:59:11.808Z,21.98
2023-08-11T21:01:39.050Z,21.77
2023-08-11T21:04:06.489Z,21.96
2023-08-11T21:06:34.884Z,21.74
2023-08-11T21:09:01.919Z,21.56
2023-08-11T21:11:28.968Z,21.64
2023-08-11T21:13:56.571Z,21.63
2023-08-11T21:16:23.761Z,21.86
2023-08-11T21:18:51.762Z,21.86
2023-08-11T21:21:18.929Z,22.00
2023-08-11T21:23:46.000Z,21.88
2023-08-11T21:26:13.419Z,21.97
2023-08-11T21:28:40.531Z,21.88
2023-08-11T21:31:17.755Z,21.99
2023-08-11T21:33:57.449Z,22.04
2023-08-11T21:36:24.854Z,22.02
2023-08-11T21:38:51.911Z,21.84
2023-08-11T21:41:19.013Z,22.06
2023-08-11T21:43:46.345Z,22.14
2023-08-11T21:46:13.431Z,22.01
2023-08-11T21:48:40.453Z,21.68
2023-08-11T21:51:07.611Z,21.82
2023-08-11T21:53:34.963Z,21.74
2023-08-11T21:56:02.179Z,21.37
2023-08-11T21:58:29.226Z,21.22
2023-08-11T22:00:56.463Z,21.12
2023-08-11T22:03:23.604Z,21.10
2023-08-11T22:05:50.567Z,21.31
2023-08-11T22:08:17.592Z,21.08
2023-08-11T22:10:46.105Z,20.72
2023-08-11T22:13:13.597Z,20.35
2023-08-11T22:15:40.680Z,20.38
2023-08-11T22:18:08.629Z,20.70
2023-08-11T22:20:35.784Z,20.60
2023-08-11T22:23:02.919Z,20.51
2023-08-11T22:25:30.141Z,20.55
2023-08-11T22:27:57.208Z,20.58
2023-08-11T22:30:24.401Z,20.73
2023-08-11T22:32:51.626Z,20.78
2023-08-11T22:35:18.964Z,20.98
2023-08-11T22:37:46.065Z,20.91
2023-08-11T22:40:13.381Z,21.08
2023-08-11T22:42:40.439Z,20.97
2023-08-11T22:45:08.125Z,21.07
2023-08-11T22:47:35.324Z,21.11
2023-08-11T22:50:02.410Z,21.06
2023-08-11T22:52:30.340Z,21.09
2023-08-11T22:54:57.522Z,21.27
2023-08-11T22:57:26.432Z,21.40
2023-08-11T22:59:54.041Z,21.34
2023-08-11T23:02:21.287Z,21.35
2023-08-11T23:04:51.385Z,21.39
2023-08-11T23:07:24.185Z,21.46
2023-08-11T23:09:51.392Z,21.54
2023-08-11T23:12:18.414Z,21.43
2023-08-11T23:14:45.750Z,21.59
2023-08-11T23:17:13.118Z,21.46
2023-08-11T23:19:40.735Z,21.28
2023-08-11T23:22:09.709Z,21.10
2023-08-11T23:24:36.736Z,20.87
2023-08-11T23:27:03.876Z,21.05
2023-08-11T23:29:30.972Z,21.26
2023-08-11T23:31:58.202Z,21.23
2023-08-11T23:34:25.485Z,21.28
2023-08-11T23:36:52.552Z,21.12
2023-08-11T23:39:19.657Z,21.38
2023-08-11T23:41:46.848Z,21.40
2023-08-11T23:44:13.934Z,21.35
2023-08-11T23:46:41.072Z,21.33
2023-08-11T23:49:08.225Z,21.37
2023-08-11T23:51:35.289Z,21.37
2023-08-11T23:54:02.434Z,21.29
2023-08-11T23:56:30.648Z,21.54
2023-08-11T23:58:57.695Z,21.29
